Cunnamulla, Australia
Current Conditions -  °F | °C
As of 8:00 PM on Thursday 29 Jan 2015 (Local Time) from YBCV Reporting Station
Broken Clouds Broken Clouds  
Wind Chill: 84°   Ceiling: 10000
Heat Index: 84°   Visibility: 6mi
Dew Point: 52°   Wind: 8mph
Humidity: 33%   Direction: 150°SSE
Pressure: 29.77"   Gusts: NA
Location:  28.07°S, 145.68°E
Report Text: YBCV 291000Z AUTO 15007KT 9999 // BKN100 29/11 Q1008
Loading
Personal Weather Stations






























Interactive Weather Map New forecast layout! Learn more

10-Day Weather Forecast

Advertisements
Track Severe Weather on mobile